createdAt,value
2023-11-13T00:04:48.165Z,7.40
2023-11-13T00:07:16.261Z,6.00
2023-11-13T00:09:44.163Z,3.80
2023-11-13T00:12:12.063Z,2.80
2023-11-13T00:14:39.935Z,5.10
2023-11-13T00:17:08.126Z,4.40
2023-11-13T00:19:37.139Z,4.20
2023-11-13T00:22:05.361Z,3.40
2023-11-13T00:24:33.133Z,3.70
2023-11-13T00:27:00.881Z,4.00
2023-11-13T00:31:56.280Z,4.30
2023-11-13T00:36:52.640Z,3.80
2023-11-13T00:39:20.418Z,4.40
2023-11-13T00:41:48.170Z,5.40
2023-11-13T00:44:16.196Z,4.60
2023-11-13T00:46:44.194Z,6.40
2023-11-13T00:49:12.082Z,6.60
2023-11-13T00:51:39.805Z,6.70
2023-11-13T00:54:07.816Z,6.60
2023-11-13T00:56:35.474Z,6.20
2023-11-13T01:01:32.299Z,5.40
2023-11-13T01:04:00.262Z,5.80
2023-11-13T01:06:28.002Z,6.60
2023-11-13T01:08:56.382Z,6.90
2023-11-13T01:11:24.221Z,5.60
2023-11-13T01:13:52.062Z,6.30
2023-11-13T01:16:22.798Z,8.40
2023-11-13T01:18:54.795Z,9.10
2023-11-13T01:21:23.383Z,6.10
2023-11-13T01:23:51.328Z,9.20
2023-11-13T01:28:46.765Z,7.90
2023-11-13T01:33:46.050Z,6.50
2023-11-13T01:36:13.880Z,10.60
2023-11-13T01:38:42.488Z,6.40
2023-11-13T01:41:10.254Z,6.90
2023-11-13T01:43:38.150Z,7.20
2023-11-13T01:48:36.095Z,6.70
2023-11-13T01:51:04.291Z,6.80
2023-11-13T01:53:32.393Z,7.30
2023-11-13T01:56:00.685Z,9.90
2023-11-13T01:58:28.937Z,11.00
2023-11-13T02:00:56.799Z,10.90
2023-11-13T02:03:26.259Z,10.10
2023-11-13T02:05:54.447Z,7.40
2023-11-13T02:08:22.659Z,7.90
2023-11-13T02:10:50.713Z,9.90
2023-11-13T02:13:19.870Z,8.70
2023-11-13T02:15:47.734Z,7.40
2023-11-13T02:18:15.834Z,6.10
2023-11-13T02:23:16.121Z,8.20
2023-11-13T02:25:52.708Z,8.90
2023-11-13T02:28:21.112Z,11.60
2023-11-13T02:30:49.394Z,7.70
2023-11-13T02:33:17.763Z,8.10
2023-11-13T02:35:45.534Z,6.20
2023-11-13T02:38:13.498Z,7.00
2023-11-13T02:40:41.287Z,7.10
2023-11-13T02:43:09.588Z,6.20
2023-11-13T02:45:38.019Z,7.70
2023-11-13T02:48:06.271Z,6.60
2023-11-13T02:50:34.784Z,7.30
2023-11-13T02:53:02.804Z,6.90
2023-11-13T02:55:30.514Z,8.50
2023-11-13T02:57:58.901Z,6.70
2023-11-13T03:00:26.552Z,7.30
2023-11-13T03:02:54.312Z,6.90
2023-11-13T03:05:22.415Z,6.50
2023-11-13T03:07:50.184Z,6.90
2023-11-13T03:10:18.235Z,6.30
2023-11-13T03:12:45.930Z,6.40
2023-11-13T03:17:41.457Z,5.90
2023-11-13T03:20:10.372Z,5.20
2023-11-13T03:22:39.107Z,5.30
2023-11-13T03:25:09.766Z,6.10
2023-11-13T03:27:37.628Z,5.90
2023-11-13T03:30:10.282Z,5.00
2023-11-13T03:32:38.900Z,5.10
2023-11-13T03:35:07.635Z,5.40
2023-11-13T03:37:35.813Z,5.60
2023-11-13T03:40:04.103Z,5.50
2023-11-13T03:42:31.905Z,5.60
2023-11-13T03:45:00.060Z,6.50
2023-11-13T03:47:30.176Z,5.80
2023-11-13T03:49:58.209Z,5.80
2023-11-13T03:52:26.121Z,5.90
2023-11-13T03:54:54.309Z,5.40
2023-11-13T03:57:22.402Z,4.50
2023-11-13T03:59:50.438Z,7.80
2023-11-13T04:02:18.277Z,6.50
2023-11-13T04:04:46.535Z,5.40
2023-11-13T04:07:14.317Z,5.90
2023-11-13T04:09:42.536Z,8.40
2023-11-13T04:12:11.554Z,5.60
2023-11-13T04:14:39.633Z,5.50
2023-11-13T04:17:09.209Z,5.30
2023-11-13T04:19:36.913Z,8.10
2023-11-13T04:22:07.968Z,5.70
2023-11-13T04:24:36.135Z,8.70
2023-11-13T04:27:04.059Z,8.90
2023-11-13T04:29:32.455Z,9.40
2023-11-13T04:32:00.141Z,6.30
2023-11-13T04:34:28.130Z,10.40
2023-11-13T04:36:57.312Z,6.80
2023-11-13T04:39:25.213Z,6.20
2023-11-13T04:41:52.899Z,6.60
2023-11-13T04:44:21.022Z,7.70
2023-11-13T04:46:49.192Z,7.90
2023-11-13T04:49:17.641Z,8.40
2023-11-13T04:51:45.457Z,7.10
2023-11-13T04:54:13.985Z,6.10
2023-11-13T04:56:42.859Z,8.20
2023-11-13T04:59:10.796Z,7.60
2023-11-13T05:01:40.757Z,6.60
2023-11-13T05:04:09.032Z,6.60
2023-11-13T05:06:37.122Z,6.50
2023-11-13T05:09:05.075Z,6.20
2023-11-13T05:11:32.854Z,5.70
2023-11-13T05:14:00.642Z,7.20
2023-11-13T05:16:29.842Z,9.00
2023-11-13T05:18:57.997Z,6.80
2023-11-13T05:21:26.233Z,5.70
2023-11-13T05:23:54.001Z,5.60
2023-11-13T05:26:21.945Z,7.00
2023-11-13T05:28:50.025Z,5.00
2023-11-13T05:31:18.192Z,5.30
2023-11-13T05:33:46.270Z,4.00
2023-11-13T05:36:14.242Z,5.30
2023-11-13T05:38:43.398Z,6.40
2023-11-13T05:41:11.569Z,5.90
2023-11-13T05:43:39.417Z,6.20
2023-11-13T05:46:08.569Z,5.20
2023-11-13T05:48:36.604Z,4.50
2023-11-13T05:51:05.133Z,4.50
2023-11-13T05:53:33.712Z,5.40
2023-11-13T05:56:01.402Z,4.80
2023-11-13T05:58:29.504Z,4.60
2023-11-13T06:00:58.870Z,4.80
2023-11-13T06:03:27.178Z,3.60
2023-11-13T06:05:55.210Z,3.30
2023-11-13T06:08:23.162Z,4.80
2023-11-13T06:10:51.026Z,4.50
2023-11-13T06:13:18.983Z,4.10
2023-11-13T06:15:47.090Z,4.40
2023-11-13T06:20:44.205Z,3.80
2023-11-13T06:23:12.131Z,4.40
2023-11-13T06:25:39.865Z,3.30
2023-11-13T06:28:08.023Z,3.80
2023-11-13T06:30:35.920Z,3.40
2023-11-13T06:33:04.418Z,3.90
2023-11-13T06:35:33.584Z,3.60
2023-11-13T06:38:02.055Z,4.90
2023-11-13T06:40:30.042Z,5.70
2023-11-13T06:42:58.273Z,4.60
2023-11-13T06:45:26.054Z,5.50
2023-11-13T06:47:54.112Z,4.80
2023-11-13T06:50:21.945Z,5.10
2023-11-13T06:52:52.527Z,5.90
2023-11-13T06:55:20.760Z,5.10
2023-11-13T06:57:49.042Z,6.10
2023-11-13T07:00:18.020Z,6.20
2023-11-13T07:02:49.141Z,5.70
2023-11-13T07:05:17.117Z,5.80
2023-11-13T07:07:44.980Z,5.70
2023-11-13T07:12:42.761Z,4.70
2023-11-13T07:15:13.167Z,4.50
2023-11-13T07:17:41.198Z,5.60
2023-11-13T07:20:14.700Z,6.50
2023-11-13T07:22:42.522Z,6.00
2023-11-13T07:25:10.474Z,5.20
2023-11-13T07:27:38.262Z,4.60
2023-11-13T07:30:07.109Z,4.60
2023-11-13T07:32:35.496Z,4.40
2023-11-13T07:35:04.476Z,4.70
2023-11-13T07:37:34.820Z,5.60
2023-11-13T07:40:02.800Z,4.50
2023-11-13T07:42:30.829Z,4.30
2023-11-13T07:45:00.210Z,5.00
2023-11-13T07:47:29.174Z,5.90
2023-11-13T07:49:59.351Z,4.30
2023-11-13T07:52:28.282Z,3.20
2023-11-13T07:54:57.260Z,3.50
2023-11-13T07:57:25.032Z,4.20
2023-11-13T07:59:52.807Z,3.90
2023-11-13T08:02:21.514Z,3.40
2023-11-13T08:04:49.815Z,4.20
2023-11-13T08:07:25.332Z,4.40
2023-11-13T08:09:53.998Z,3.80
2023-11-13T08:12:22.058Z,4.60
2023-11-13T08:14:49.769Z,4.50
2023-11-13T08:17:18.684Z,4.70
2023-11-13T08:19:47.400Z,4.30
2023-11-13T08:22:15.496Z,4.00
2023-11-13T08:24:43.511Z,3.30
2023-11-13T08:27:11.481Z,3.60
2023-11-13T08:29:39.152Z,4.30
2023-11-13T08:32:07.512Z,4.80
2023-11-13T08:34:35.313Z,3.60
2023-11-13T08:37:24.011Z,4.40
2023-11-13T08:39:51.724Z,4.60
2023-11-13T08:42:19.442Z,4.20
2023-11-13T08:44:47.294Z,3.40
2023-11-13T08:47:16.641Z,3.90
2023-11-13T08:49:44.552Z,3.60
2023-11-13T08:52:12.713Z,4.30
2023-11-13T08:54:40.845Z,4.60
2023-11-13T08:57:08.609Z,4.50
2023-11-13T08:59:36.678Z,3.20
2023-11-13T09:02:08.024Z,4.40
2023-11-13T09:04:36.234Z,3.90
2023-11-13T09:07:10.814Z,3.40
2023-11-13T09:09:39.904Z,3.70
2023-11-13T09:12:08.344Z,4.40
2023-11-13T09:14:36.562Z,3.50
2023-11-13T09:17:12.512Z,3.20
2023-11-13T09:19:43.308Z,4.20
2023-11-13T09:22:11.819Z,3.40
2023-11-13T09:24:41.172Z,4.10
2023-11-13T09:27:12.996Z,3.50
2023-11-13T09:29:44.943Z,4.20
2023-11-13T09:32:12.915Z,3.90
2023-11-13T09:34:45.122Z,3.60
2023-11-13T09:37:13.207Z,3.80
2023-11-13T09:39:43.745Z,4.30
2023-11-13T09:42:17.700Z,4.60
2023-11-13T09:47:30.569Z,5.10
2023-11-13T09:50:16.592Z,4.10
2023-11-13T09:52:51.670Z,4.70
2023-11-13T09:55:21.834Z,3.80
2023-11-13T09:58:00.500Z,4.80
2023-11-13T10:00:33.718Z,3.80
2023-11-13T10:03:01.918Z,3.80
2023-11-13T10:05:31.973Z,4.80
2023-11-13T10:07:59.820Z,3.40
2023-11-13T10:10:48.924Z,3.90
2023-11-13T10:13:23.188Z,2.80
2023-11-13T10:15:51.229Z,3.70
2023-11-13T10:18:27.430Z,3.10
2023-11-13T10:21:16.616Z,3.10
2023-11-13T10:23:44.592Z,2.50
2023-11-13T10:26:16.077Z,2.80
2023-11-13T10:28:43.908Z,2.70
2023-11-13T10:31:14.759Z,2.30
2023-11-13T10:34:00.687Z,3.70
2023-11-13T10:36:33.459Z,3.00
2023-11-13T10:39:01.937Z,4.10
2023-11-13T10:41:31.392Z,3.90
2023-11-13T10:43:59.160Z,3.70
2023-11-13T10:46:32.033Z,3.50
2023-11-13T10:49:01.308Z,3.00
2023-11-13T10:51:31.899Z,2.90
2023-11-13T10:54:06.828Z,4.00
2023-11-13T10:56:36.073Z,4.20
2023-11-13T10:59:04.581Z,3.80
2023-11-13T11:01:33.628Z,3.40
2023-11-13T11:04:06.892Z,3.90
2023-11-13T11:06:39.155Z,3.80
2023-11-13T11:09:09.234Z,4.00
2023-11-13T11:11:38.065Z,3.80
2023-11-13T11:14:14.304Z,5.40
2023-11-13T11:16:44.206Z,4.50
2023-11-13T11:19:33.280Z,3.90
2023-11-13T11:22:34.756Z,4.90
2023-11-13T11:25:23.661Z,4.50
2023-11-13T11:27:52.008Z,4.80
2023-11-13T11:30:19.908Z,4.20
2023-11-13T11:33:01.846Z,4.30
2023-11-13T11:35:39.176Z,3.90
2023-11-13T11:38:27.969Z,3.30
2023-11-13T11:40:59.728Z,4.50
2023-11-13T11:43:34.226Z,4.40
2023-11-13T11:46:07.599Z,4.00
2023-11-13T11:48:39.461Z,3.60
2023-11-13T11:51:21.368Z,3.20
2023-11-13T11:54:01.076Z,4.40
2023-11-13T11:56:29.519Z,3.60
2023-11-13T11:58:57.616Z,4.50
2023-11-13T12:01:27.485Z,3.10
2023-11-13T12:03:55.301Z,3.70
2023-11-13T12:06:23.335Z,3.10
2023-11-13T12:08:52.583Z,4.10
2023-11-13T12:11:21.280Z,4.20
2023-11-13T12:13:49.270Z,4.10
2023-11-13T12:16:17.200Z,3.80
2023-11-13T12:18:45.322Z,3.30
2023-11-13T12:21:13.393Z,3.70
2023-11-13T12:23:41.215Z,4.90
2023-11-13T12:26:14.289Z,6.90
2023-11-13T12:28:44.442Z,20.00
2023-11-13T12:31:20.907Z,19.30
2023-11-13T12:33:49.067Z,8.60
2023-11-13T12:36:18.400Z,6.00
2023-11-13T12:38:48.120Z,6.30
2023-11-13T12:41:16.266Z,6.80
2023-11-13T12:43:44.356Z,7.00
2023-11-13T12:46:13.528Z,6.60
2023-11-13T12:48:42.774Z,8.80
2023-11-13T12:51:11.793Z,8.70
2023-11-13T12:53:47.403Z,12.00
2023-11-13T12:56:15.297Z,8.90
2023-11-13T12:58:44.488Z,11.90
2023-11-13T13:01:16.796Z,8.80
2023-11-13T13:03:46.546Z,11.20
2023-11-13T13:06:14.825Z,9.10
2023-11-13T13:08:43.584Z,7.40
2023-11-13T13:11:11.887Z,6.80
2023-11-13T13:13:45.640Z,6.10
2023-11-13T13:16:20.504Z,9.00
2023-11-13T13:18:50.097Z,9.70
2023-11-13T13:21:17.870Z,10.70
2023-11-13T13:23:45.826Z,7.20
2023-11-13T13:26:14.041Z,4.40
2023-11-13T13:28:42.056Z,3.70
2023-11-13T13:31:12.724Z,2.60
2023-11-13T13:33:41.838Z,2.30
2023-11-13T13:36:10.818Z,3.40
2023-11-13T13:38:38.767Z,15.70
2023-11-13T13:41:06.821Z,18.00
2023-11-13T13:43:34.524Z,6.70
2023-11-13T13:46:04.161Z,5.20
2023-11-13T13:48:33.242Z,5.60
2023-11-13T13:51:02.174Z,9.50
2023-11-13T13:53:33.703Z,7.80
2023-11-13T13:56:02.426Z,6.50
2023-11-13T13:58:30.217Z,6.80
2023-11-13T14:00:58.167Z,4.20
2023-11-13T14:03:26.032Z,2.90
2023-11-13T14:05:54.187Z,2.70
2023-11-13T14:08:22.317Z,4.40
2023-11-13T14:10:52.788Z,3.00
2023-11-13T14:13:24.120Z,2.10
2023-11-13T14:18:26.192Z,2.80
2023-11-13T14:20:57.628Z,2.00
2023-11-13T14:23:27.334Z,2.90
2023-11-13T14:25:55.819Z,3.80
2023-11-13T14:28:24.273Z,3.20
2023-11-13T14:30:52.528Z,3.50
2023-11-13T14:33:23.748Z,4.40
2023-11-13T14:35:52.498Z,4.50
2023-11-13T14:38:20.635Z,7.40
2023-11-13T14:40:48.397Z,15.40
2023-11-13T14:43:16.304Z,13.90
2023-11-13T14:45:45.769Z,14.50
2023-11-13T14:48:14.713Z,10.80
2023-11-13T14:50:43.616Z,13.00
2023-11-13T14:53:11.461Z,5.90
2023-11-13T14:55:39.943Z,6.70
2023-11-13T14:58:08.035Z,7.90
2023-11-13T15:00:35.884Z,10.30
2023-11-13T15:03:03.718Z,11.90
2023-11-13T15:05:31.882Z,10.20
2023-11-13T15:07:59.642Z,23.90
2023-11-13T15:10:28.700Z,12.00
2023-11-13T15:12:56.642Z,11.40
2023-11-13T15:15:25.459Z,12.10
2023-11-13T15:17:53.422Z,11.20
2023-11-13T15:20:22.258Z,14.10
2023-11-13T15:23:08.805Z,8.80
2023-11-13T15:25:42.482Z,6.60
2023-11-13T15:28:11.537Z,2.90
2023-11-13T15:30:40.078Z,2.50
2023-11-13T15:33:09.670Z,2.90
2023-11-13T15:35:38.929Z,3.40
2023-11-13T15:38:06.701Z,2.80
2023-11-13T15:40:34.889Z,3.50
2023-11-13T15:43:02.705Z,2.70
2023-11-13T15:45:32.222Z,2.40
2023-11-13T15:48:00.926Z,3.30
2023-11-13T15:50:30.428Z,2.90
2023-11-13T15:52:58.294Z,2.90
2023-11-13T15:55:26.175Z,2.60
2023-11-13T15:57:54.018Z,3.20
2023-11-13T16:00:24.113Z,2.30
2023-11-13T16:02:51.855Z,2.40
2023-11-13T16:05:20.680Z,2.10
2023-11-13T16:07:49.324Z,2.30
2023-11-13T16:10:17.510Z,2.80
2023-11-13T16:12:53.576Z,3.20
2023-11-13T16:15:24.161Z,3.30
2023-11-13T16:17:52.648Z,4.30
2023-11-13T16:20:20.809Z,5.00
2023-11-13T16:22:51.128Z,4.60
2023-11-13T16:25:19.051Z,3.70
2023-11-13T16:27:46.773Z,4.30
2023-11-13T16:30:14.901Z,4.40
2023-11-13T16:32:43.198Z,4.00
2023-11-13T16:35:13.904Z,3.70
2023-11-13T16:37:41.929Z,2.90
2023-11-13T16:40:10.836Z,4.10
2023-11-13T16:42:40.456Z,6.00
2023-11-13T16:45:13.920Z,4.90
2023-11-13T16:47:44.118Z,2.90
2023-11-13T16:50:12.760Z,3.20
2023-11-13T16:52:40.725Z,4.00
2023-11-13T16:55:09.201Z,3.80
2023-11-13T16:57:38.276Z,3.30
2023-11-13T17:00:10.201Z,3.30
2023-11-13T17:02:43.857Z,3.70
2023-11-13T17:05:12.672Z,3.80
2023-11-13T17:07:40.300Z,4.30
2023-11-13T17:10:10.786Z,3.40
2023-11-13T17:12:39.564Z,4.60
2023-11-13T17:15:09.560Z,4.00
2023-11-13T17:17:37.552Z,4.20
2023-11-13T17:20:09.334Z,3.60
2023-11-13T17:22:40.999Z,2.50
2023-11-13T17:25:09.796Z,3.10
2023-11-13T17:27:38.746Z,2.40
2023-11-13T17:30:08.278Z,2.80
2023-11-13T17:32:37.306Z,3.80
2023-11-13T17:35:06.033Z,2.50
2023-11-13T17:37:33.973Z,2.80
2023-11-13T17:40:01.799Z,2.60
2023-11-13T17:42:31.553Z,2.10
2023-11-13T17:44:59.519Z,3.60
2023-11-13T17:47:28.212Z,2.70
2023-11-13T17:49:57.299Z,3.80
2023-11-13T17:52:25.049Z,3.00
2023-11-13T17:54:52.922Z,2.30
2023-11-13T17:57:20.720Z,2.70
2023-11-13T17:59:50.538Z,2.60
2023-11-13T18:02:20.839Z,2.50
2023-11-13T18:04:49.622Z,2.20
2023-11-13T18:07:18.751Z,2.70
2023-11-13T18:09:48.180Z,2.50
2023-11-13T18:12:15.924Z,2.60
2023-11-13T18:14:44.188Z,3.00
2023-11-13T18:17:12.565Z,3.20
2023-11-13T18:19:40.584Z,4.40
2023-11-13T18:22:08.397Z,6.10
2023-11-13T18:24:38.215Z,6.00
2023-11-13T18:27:07.124Z,4.70
2023-11-13T18:29:35.923Z,4.90
2023-11-13T18:32:06.707Z,5.70
2023-11-13T18:34:35.705Z,5.40
2023-11-13T18:37:05.085Z,5.70
2023-11-13T18:39:34.283Z,7.30
2023-11-13T18:42:03.773Z,9.20
2023-11-13T18:44:31.593Z,9.70
2023-11-13T18:46:59.441Z,10.80
2023-11-13T18:49:27.251Z,12.10
2023-11-13T18:51:55.600Z,6.60
2023-11-13T18:54:23.457Z,7.20
2023-11-13T18:56:51.441Z,8.90
2023-11-13T18:59:20.202Z,6.50
2023-11-13T19:01:48.070Z,5.80
2023-11-13T19:04:16.134Z,4.50
2023-11-13T19:06:45.582Z,4.60
2023-11-13T19:09:18.033Z,3.80
2023-11-13T19:11:47.474Z,1.60
2023-11-13T19:14:15.273Z,1.50
2023-11-13T19:16:43.868Z,2.10
2023-11-13T19:19:13.314Z,2.50
2023-11-13T19:21:41.041Z,2.70
2023-11-13T19:24:10.054Z,3.00
2023-11-13T19:26:38.534Z,2.50
2023-11-13T19:29:06.255Z,2.40
2023-11-13T19:31:34.579Z,7.20
2023-11-13T19:34:02.392Z,3.30
2023-11-13T19:36:30.108Z,2.70
2023-11-13T19:38:58.696Z,2.20
2023-11-13T19:41:27.353Z,3.00
2023-11-13T19:43:55.315Z,2.90
2023-11-13T19:46:23.625Z,2.60
2023-11-13T19:48:53.644Z,3.00
2023-11-13T19:51:22.744Z,3.20
2023-11-13T19:53:50.887Z,3.20
2023-11-13T19:56:18.943Z,2.90
2023-11-13T19:58:46.728Z,3.20
2023-11-13T20:01:14.854Z,3.70
2023-11-13T20:03:43.185Z,4.10
2023-11-13T20:06:10.937Z,3.80
2023-11-13T20:08:39.259Z,3.50
2023-11-13T20:11:08.139Z,3.50
2023-11-13T20:13:37.204Z,4.20
2023-11-13T20:16:06.349Z,6.30
2023-11-13T20:18:37.236Z,4.90
2023-11-13T20:21:06.221Z,4.00
2023-11-13T20:23:35.883Z,4.20
2023-11-13T20:26:06.931Z,2.60
2023-11-13T20:28:36.584Z,4.20
2023-11-13T20:31:04.845Z,7.50
2023-11-13T20:33:32.945Z,10.20
2023-11-13T20:36:01.846Z,14.90
2023-11-13T20:38:30.511Z,8.80
2023-11-13T20:40:58.293Z,4.30
2023-11-13T20:43:26.089Z,3.30
2023-11-13T20:45:54.175Z,4.10
2023-11-13T20:48:22.515Z,2.70
2023-11-13T20:50:50.415Z,2.60
2023-11-13T20:53:20.734Z,3.50
2023-11-13T20:55:49.004Z,2.40
2023-11-13T20:58:16.659Z,1.90
2023-11-13T21:00:44.564Z,2.70
2023-11-13T21:03:12.847Z,2.00
2023-11-13T21:05:41.757Z,2.50
2023-11-13T21:08:12.052Z,4.10
2023-11-13T21:10:40.028Z,2.70
2023-11-13T21:13:08.052Z,4.00
2023-11-13T21:15:36.012Z,2.90
2023-11-13T21:18:04.342Z,2.80
2023-11-13T21:20:32.593Z,2.40
2023-11-13T21:23:01.076Z,2.50
2023-11-13T21:25:29.305Z,2.50
2023-11-13T21:27:57.289Z,2.40
2023-11-13T21:30:25.986Z,2.30
2023-11-13T21:32:53.874Z,2.30
2023-11-13T21:35:21.810Z,2.70
2023-11-13T21:37:50.486Z,1.90
2023-11-13T21:40:20.099Z,2.30
2023-11-13T21:42:48.679Z,2.20
2023-11-13T21:45:18.160Z,3.20
2023-11-13T21:47:46.990Z,1.90
2023-11-13T21:50:17.020Z,1.80
2023-11-13T21:52:45.045Z,1.70
2023-11-13T21:55:13.415Z,2.20
2023-11-13T21:57:41.848Z,2.40
2023-11-13T22:00:11.837Z,1.10
2023-11-13T22:02:41.143Z,1.60
2023-11-13T22:05:09.803Z,3.20
2023-11-13T22:07:40.761Z,1.40
2023-11-13T22:10:09.725Z,1.60
2023-11-13T22:12:37.962Z,1.50
2023-11-13T22:15:10.954Z,1.50
2023-11-13T22:17:39.203Z,1.00
2023-11-13T22:20:08.981Z,1.20
2023-11-13T22:22:37.290Z,1.80
2023-11-13T22:25:05.264Z,2.70
2023-11-13T22:27:33.124Z,1.70
2023-11-13T22:30:01.095Z,1.70
2023-11-13T22:32:29.303Z,0.80
2023-11-13T22:34:57.181Z,1.10
2023-11-13T22:37:25.213Z,0.70
2023-11-13T22:39:52.867Z,0.70
2023-11-13T22:42:21.833Z,1.20
2023-11-13T22:44:50.762Z,0.70
2023-11-13T22:47:18.500Z,1.00
2023-11-13T22:49:47.228Z,0.70
2023-11-13T22:52:15.890Z,1.30
2023-11-13T22:54:43.649Z,0.60
2023-11-13T22:57:11.889Z,0.50
2023-11-13T22:59:39.806Z,1.00
2023-11-13T23:02:07.622Z,0.80
2023-11-13T23:04:36.323Z,0.60
2023-11-13T23:07:05.412Z,1.30
2023-11-13T23:09:34.439Z,1.40
2023-11-13T23:12:02.590Z,1.10
2023-11-13T23:14:39.912Z,0.80
2023-11-13T23:17:07.776Z,1.10
2023-11-13T23:19:36.424Z,2.30
2023-11-13T23:22:05.037Z,0.60
2023-11-13T23:24:33.258Z,1.30
2023-11-13T23:27:01.663Z,3.90
2023-11-13T23:29:29.652Z,0.80
2023-11-13T23:31:57.733Z,0.70
2023-11-13T23:34:25.690Z,0.60
2023-11-13T23:36:53.735Z,0.60
2023-11-13T23:39:21.531Z,0.60
2023-11-13T23:41:49.397Z,0.60
2023-11-13T23:44:17.142Z,0.90
2023-11-13T23:46:48.842Z,0.90
2023-11-13T23:49:16.694Z,1.70
2023-11-13T23:51:44.345Z,1.30
2023-11-13T23:54:12.197Z,1.50
2023-11-13T23:56:39.949Z,1.30
2023-11-13T23:59:08.150Z,1.90
